Time;durP1;ratioP1;P1;durP2;ratioP2;P2;SDS_P1;SDS_P2;PMS_P1;PMS_P2;Temp;Humidity;BMP_temperature;BMP_pressure;BME280_temperature;BME280_humidity;BME280_pressure;Samples;Min_cycle;Max_cycle;Signal;HPM_P1;HPM_P2
2021/08/30 00:00:58;;;;;;;2.19;1.91;;;;;;;20.55;71.17;100377.47;;;;-52
2021/08/30 00:03:58;;;;;;;2.27;2.02;;;;;;;20.54;71.20;100374.62;;;;-52
2021/08/30 00:06:59;;;;;;;2.22;1.98;;;;;;;20.54;71.18;100374.13;;;;-51
2021/08/30 00:09:58;;;;;;;2.29;2.09;;;;;;;20.54;71.19;100372.08;;;;-52
2021/08/30 00:12:58;;;;;;;1.89;1.79;;;;;;;20.53;71.17;100368.02;;;;-51
2021/08/30 00:15:58;;;;;;;2.07;1.87;;;;;;;20.53;71.19;100368.25;;;;-51
2021/08/30 00:18:58;;;;;;;2.23;1.99;;;;;;;20.52;71.12;100360.34;;;;-63
2021/08/30 00:21:58;;;;;;;2.01;1.91;;;;;;;20.52;71.17;100362.55;;;;-52
2021/08/30 00:25:00;;;;;;;2.16;1.95;;;;;;;20.51;71.19;100355.16;;;;-60
2021/08/30 00:27:58;;;;;;;2.10;1.90;;;;;;;20.52;71.23;100352.87;;;;-60
2021/08/30 00:30:58;;;;;;;2.20;2.00;;;;;;;20.51;71.23;100350.75;;;;-60
2021/08/30 00:33:58;;;;;;;2.01;1.81;;;;;;;20.51;71.18;100351.89;;;;-60
2021/08/30 00:36:58;;;;;;;2.31;1.97;;;;;;;20.51;71.18;100350.19;;;;-62
2021/08/30 00:39:59;;;;;;;1.90;1.80;;;;;;;20.50;71.22;100350.69;;;;-51
2021/08/30 00:42:58;;;;;;;2.03;1.92;;;;;;;20.50;71.22;100343.52;;;;-52
2021/08/30 00:45:58;;;;;;;2.09;1.92;;;;;;;20.49;71.20;100338.63;;;;-52
2021/08/30 00:48:58;;;;;;;2.00;1.83;;;;;;;20.50;71.21;100339.02;;;;-59
2021/08/30 00:51:58;;;;;;;1.90;1.80;;;;;;;20.49;71.20;100336.51;;;;-59
2021/08/30 00:54:58;;;;;;;2.00;1.83;;;;;;;20.50;71.20;100339.59;;;;-52
2021/08/30 00:57:58;;;;;;;1.89;1.79;;;;;;;20.49;71.23;100342.20;;;;-60
2021/08/30 01:00:58;;;;;;;2.05;1.87;;;;;;;20.48;71.18;100344.73;;;;-60
2021/08/30 01:03:58;;;;;;;2.23;1.79;;;;;;;20.49;71.27;100347.91;;;;-62
2021/08/30 01:06:58;;;;;;;2.09;1.90;;;;;;;20.48;71.19;100347.34;;;;-62
2021/08/30 01:09:58;;;;;;;2.37;2.17;;;;;;;20.48;71.22;100345.31;;;;-63
2021/08/30 01:12:58;;;;;;;1.92;1.79;;;;;;;20.48;71.21;100341.64;;;;-51
2021/08/30 01:15:58;;;;;;;1.80;1.70;;;;;;;20.48;71.19;100338.31;;;;-52
2021/08/30 01:18:59;;;;;;;2.33;2.10;;;;;;;20.48;71.18;100339.61;;;;-59
2021/08/30 01:21:58;;;;;;;3.40;1.92;;;;;;;20.47;71.15;100335.36;;;;-62
2021/08/30 01:24:58;;;;;;;3.11;1.83;;;;;;;20.46;71.18;100332.77;;;;-52
2021/08/30 01:27:58;;;;;;;1.91;1.80;;;;;;;20.46;71.20;100334.16;;;;-60
2021/08/30 01:30:58;;;;;;;1.99;1.81;;;;;;;20.46;71.21;100335.70;;;;-51
2021/08/30 01:33:58;;;;;;;1.74;1.64;;;;;;;20.46;71.20;100333.91;;;;-50
2021/08/30 01:36:58;;;;;;;1.83;1.73;;;;;;;20.46;71.22;100329.25;;;;-53
2021/08/30 01:39:58;;;;;;;2.00;1.80;;;;;;;20.46;71.14;100332.66;;;;-62
2021/08/30 01:42:58;;;;;;;2.03;1.88;;;;;;;20.45;71.19;100331.78;;;;-62
2021/08/30 01:45:58;;;;;;;1.90;1.80;;;;;;;20.45;71.20;100330.65;;;;-52
2021/08/30 01:48:58;;;;;;;1.81;1.71;;;;;;;20.44;71.18;100327.89;;;;-59
2021/08/30 01:51:58;;;;;;;1.90;1.80;;;;;;;20.45;71.18;100324.63;;;;-53
2021/08/30 01:55:00;;;;;;;1.97;1.85;;;;;;;20.43;71.20;100325.76;;;;-52
2021/08/30 02:00:58;;;;;;;1.78;1.68;;;;;;;20.44;71.20;100322.73;;;;-52
2021/08/30 02:03:58;;;;;;;1.89;1.78;;;;;;;20.44;71.18;100329.84;;;;-52
2021/08/30 02:06:58;;;;;;;1.95;1.81;;;;;;;20.44;71.20;100331.36;;;;-52
2021/08/30 02:10:00;;;;;;;1.71;1.61;;;;;;;20.44;71.18;100329.50;;;;-51
2021/08/30 02:12:58;;;;;;;1.87;1.77;;;;;;;20.43;71.24;100325.19;;;;-51
2021/08/30 02:15:58;;;;;;;1.83;1.73;;;;;;;20.43;71.24;100324.63;;;;-52
2021/08/30 02:18:58;;;;;;;1.91;1.67;;;;;;;20.42;71.23;100321.05;;;;-60
2021/08/30 02:21:58;;;;;;;1.70;1.60;;;;;;;20.42;71.20;100321.70;;;;-62
2021/08/30 02:24:58;;;;;;;1.79;1.69;;;;;;;20.42;71.21;100321.70;;;;-64
2021/08/30 02:27:58;;;;;;;1.81;1.71;;;;;;;20.42;71.24;100324.31;;;;-62
2021/08/30 02:30:58;;;;;;;1.81;1.70;;;;;;;20.42;71.23;100321.44;;;;-60
2021/08/30 02:33:58;;;;;;;1.83;1.73;;;;;;;20.41;71.21;100323.06;;;;-51
2021/08/30 02:36:59;;;;;;;1.71;1.60;;;;;;;20.42;71.23;100323.55;;;;-60
2021/08/30 02:39:58;;;;;;;2.04;1.71;;;;;;;20.41;71.19;100332.19;;;;-60
2021/08/30 02:42:58;;;;;;;1.73;1.60;;;;;;;20.41;71.22;100334.23;;;;-63
2021/08/30 02:45:58;;;;;;;1.79;1.69;;;;;;;20.41;71.22;100332.44;;;;-53
2021/08/30 02:48:58;;;;;;;1.75;1.65;;;;;;;20.40;71.18;100332.03;;;;-52
2021/08/30 02:52:02;;;;;;;1.88;1.73;;;;;;;20.40;71.24;100328.27;;;;-53
2021/08/30 02:54:58;;;;;;;2.67;1.81;;;;;;;20.40;71.20;100326.16;;;;-60
2021/08/30 02:57:58;;;;;;;2.46;1.69;;;;;;;20.39;71.23;100321.84;;;;-63
2021/08/30 03:00:58;;;;;;;1.75;1.65;;;;;;;20.38;71.25;100324.13;;;;-62
2021/08/30 03:03:58;;;;;;;2.13;1.69;;;;;;;20.39;71.24;100322.09;;;;-62
2021/08/30 03:06:58;;;;;;;1.73;1.63;;;;;;;20.39;71.25;100321.69;;;;-52
2021/08/30 03:09:58;;;;;;;1.93;1.69;;;;;;;20.38;71.21;100319.25;;;;-52
2021/08/30 03:12:58;;;;;;;1.69;1.59;;;;;;;20.39;71.24;100319.17;;;;-51
2021/08/30 03:15:58;;;;;;;1.73;1.63;;;;;;;20.38;71.24;100317.70;;;;-52
2021/08/30 03:18:58;;;;;;;1.60;1.50;;;;;;;20.39;71.20;100319.41;;;;-52
2021/08/30 03:21:58;;;;;;;1.77;1.67;;;;;;;20.38;71.20;100311.45;;;;-60
2021/08/30 03:24:58;;;;;;;1.83;1.73;;;;;;;20.38;71.13;100310.03;;;;-59
2021/08/30 03:27:58;;;;;;;1.59;1.49;;;;;;;20.37;71.27;100309.80;;;;-51
2021/08/30 03:30:58;;;;;;;1.79;1.69;;;;;;;20.38;71.26;100308.25;;;;-52
2021/08/30 03:33:58;;;;;;;1.80;1.70;;;;;;;20.38;71.21;100309.66;;;;-52
2021/08/30 03:36:58;;;;;;;1.62;1.52;;;;;;;20.38;71.18;100304.98;;;;-52
2021/08/30 03:39:58;;;;;;;1.59;1.49;;;;;;;20.37;71.22;100303.05;;;;-52
2021/08/30 03:42:58;;;;;;;1.71;1.61;;;;;;;20.37;71.23;100301.25;;;;-52
2021/08/30 03:45:58;;;;;;;1.72;1.62;;;;;;;20.37;71.22;100307.52;;;;-52
2021/08/30 03:48:58;;;;;;;1.80;1.70;;;;;;;20.37;71.20;100307.77;;;;-51
2021/08/30 03:51:58;;;;;;;1.75;1.65;;;;;;;20.37;71.21;100307.28;;;;-52
2021/08/30 03:54:58;;;;;;;1.77;1.67;;;;;;;20.36;71.20;100301.84;;;;-51
2021/08/30 03:57:59;;;;;;;1.83;1.64;;;;;;;20.37;71.22;100309.48;;;;-51
2021/08/30 04:01:03;;;;;;;1.63;1.53;;;;;;;20.35;71.27;100301.66;;;;-59
2021/08/30 04:03:58;;;;;;;1.73;1.59;;;;;;;20.36;71.22;100306.97;;;;-60
2021/08/30 04:06:58;;;;;;;1.69;1.59;;;;;;;20.35;71.24;100307.67;;;;-52
2021/08/30 04:09:58;;;;;;;1.80;1.70;;;;;;;20.35;71.24;100304.51;;;;-52
2021/08/30 04:12:58;;;;;;;1.60;1.50;;;;;;;20.36;71.22;100310.85;;;;-52
2021/08/30 04:15:58;;;;;;;1.80;1.70;;;;;;;20.35;71.22;100308.34;;;;-52
2021/08/30 04:18:58;;;;;;;2.05;1.84;;;;;;;20.35;71.25;100310.38;;;;-62
2021/08/30 04:21:58;;;;;;;1.80;1.70;;;;;;;20.34;71.23;100303.95;;;;-62
2021/08/30 04:24:58;;;;;;;1.70;1.60;;;;;;;20.34;71.22;100310.22;;;;-60
2021/08/30 04:27:58;;;;;;;1.70;1.60;;;;;;;20.34;71.22;100311.20;;;;-59
2021/08/30 04:30:58;;;;;;;1.60;1.50;;;;;;;20.34;71.24;100316.08;;;;-60
2021/08/30 04:33:58;;;;;;;2.47;1.69;;;;;;;20.34;71.17;100318.61;;;;-61
2021/08/30 04:36:58;;;;;;;1.72;1.62;;;;;;;20.34;71.24;100315.03;;;;-60
2021/08/30 04:39:58;;;;;;;1.70;1.60;;;;;;;20.34;71.25;100326.34;;;;-62
2021/08/30 04:42:58;;;;;;;1.69;1.59;;;;;;;20.33;71.24;100325.66;;;;-63
2021/08/30 04:45:58;;;;;;;1.75;1.63;;;;;;;20.33;71.25;100323.07;;;;-63
2021/08/30 04:48:58;;;;;;;1.89;1.69;;;;;;;20.33;71.22;100327.45;;;;-63
2021/08/30 04:51:58;;;;;;;8.68;4.57;;;;;;;20.35;71.79;100333.89;;;;-61
2021/08/30 04:54:58;;;;;;;5.54;5.04;;;;;;;20.29;71.86;100342.61;;;;-60
2021/08/30 04:57:59;;;;;;;5.91;5.34;;;;;;;20.22;72.29;100345.13;;;;-63
2021/08/30 05:00:58;;;;;;;5.28;4.76;;;;;;;20.10;72.63;100339.56;;;;-62
2021/08/30 05:03:58;;;;;;;5.75;4.47;;;;;;;20.09;72.61;100348.77;;;;-60
2021/08/30 05:06:58;;;;;;;4.21;3.91;;;;;;;20.09;72.42;100353.48;;;;-61
2021/08/30 05:09:58;;;;;;;4.28;3.91;;;;;;;20.11;72.32;100351.86;;;;-60
2021/08/30 05:12:58;;;;;;;4.21;3.81;;;;;;;20.13;72.30;100351.03;;;;-59
2021/08/30 05:15:58;;;;;;;4.05;3.64;;;;;;;20.14;72.19;100353.72;;;;-59
2021/08/30 05:18:58;;;;;;;4.06;3.45;;;;;;;20.15;72.15;100352.68;;;;-60
2021/08/30 05:21:58;;;;;;;4.97;3.41;;;;;;;20.16;72.10;100354.47;;;;-60
2021/08/30 05:24:58;;;;;;;3.80;3.43;;;;;;;20.16;72.08;100356.00;;;;-60
2021/08/30 05:27:58;;;;;;;5.30;3.32;;;;;;;20.17;72.00;100358.44;;;;-59
2021/08/30 05:30:59;;;;;;;4.71;3.27;;;;;;;20.17;72.01;100357.32;;;;-52
2021/08/30 05:33:58;;;;;;;3.47;3.17;;;;;;;20.17;71.95;100356.51;;;;-52
2021/08/30 05:36:58;;;;;;;3.98;3.17;;;;;;;20.17;71.95;100356.67;;;;-52
2021/08/30 05:39:58;;;;;;;3.39;3.09;;;;;;;20.18;71.92;100360.73;;;;-52
2021/08/30 05:42:58;;;;;;;3.36;3.06;;;;;;;20.18;71.89;100363.09;;;;-52
2021/08/30 05:45:58;;;;;;;3.36;3.06;;;;;;;20.19;71.86;100361.61;;;;-52
2021/08/30 05:48:58;;;;;;;3.00;2.80;;;;;;;20.19;71.84;100358.28;;;;-52
2021/08/30 05:51:58;;;;;;;3.04;2.78;;;;;;;20.19;71.79;100356.97;;;;-52
2021/08/30 05:54:58;;;;;;;3.83;2.88;;;;;;;20.19;71.84;100356.57;;;;-52
2021/08/30 05:57:58;;;;;;;3.94;2.81;;;;;;;20.19;71.79;100356.97;;;;-52
2021/08/30 06:00:58;;;;;;;3.00;2.77;;;;;;;20.19;71.79;100356.67;;;;-52
2021/08/30 06:03:58;;;;;;;3.11;2.81;;;;;;;20.19;71.76;100357.08;;;;-51
2021/08/30 06:06:58;;;;;;;3.03;2.83;;;;;;;20.20;71.75;100360.41;;;;-52
2021/08/30 06:09:58;;;;;;;2.83;2.63;;;;;;;20.19;71.72;100359.53;;;;-52
2021/08/30 06:12:58;;;;;;;3.07;2.75;;;;;;;20.20;71.74;100363.09;;;;-52
2021/08/30 06:15:58;;;;;;;3.52;2.81;;;;;;;20.20;71.74;100361.88;;;;-52
2021/08/30 06:18:58;;;;;;;3.31;2.75;;;;;;;20.20;71.68;100362.28;;;;-52
2021/08/30 06:21:58;;;;;;;2.77;2.57;;;;;;;20.21;71.69;100361.05;;;;-52
2021/08/30 06:24:58;;;;;;;2.98;2.65;;;;;;;20.20;71.67;100355.12;;;;-51
2021/08/30 06:27:58;;;;;;;2.97;2.77;;;;;;;20.20;71.68;100366.18;;;;-51
2021/08/30 06:30:58;;;;;;;2.75;2.55;;;;;;;20.19;71.68;100365.63;;;;-52
2021/08/30 06:33:58;;;;;;;2.77;2.57;;;;;;;20.20;71.67;100369.28;;;;-52
2021/08/30 06:36:58;;;;;;;2.83;2.60;;;;;;;20.20;71.69;100371.64;;;;-52
2021/08/30 06:39:58;;;;;;;2.73;2.53;;;;;;;20.20;71.66;100371.64;;;;-58
2021/08/30 06:42:58;;;;;;;2.83;2.63;;;;;;;20.20;71.64;100372.69;;;;-60
2021/08/30 06:45:58;;;;;;;2.81;2.61;;;;;;;20.20;71.62;100373.67;;;;-59
2021/08/30 06:48:58;;;;;;;2.81;2.61;;;;;;;20.21;71.66;100369.67;;;;-60
2021/08/30 06:51:58;;;;;;;2.62;2.42;;;;;;;20.20;71.63;100371.06;;;;-60
2021/08/30 06:54:58;;;;;;;2.78;2.58;;;;;;;20.21;71.62;100372.44;;;;-52
2021/08/30 06:57:58;;;;;;;3.05;2.44;;;;;;;20.21;71.63;100367.64;;;;-52
2021/08/30 07:00:58;;;;;;;2.85;2.65;;;;;;;20.21;71.59;100370.33;;;;-60
2021/08/30 07:03:59;;;;;;;2.78;2.58;;;;;;;20.20;71.63;100371.64;;;;-59
2021/08/30 07:06:58;;;;;;;2.77;2.57;;;;;;;20.21;71.63;100372.94;;;;-60
2021/08/30 07:09:58;;;;;;;2.60;2.40;;;;;;;20.20;71.61;100374.41;;;;-60
2021/08/30 07:12:58;;;;;;;2.77;2.57;;;;;;;20.20;71.59;100381.31;;;;-60
2021/08/30 07:15:58;;;;;;;2.78;2.58;;;;;;;20.20;71.61;100374.16;;;;-60
2021/08/30 07:18:59;;;;;;;2.87;2.67;;;;;;;20.21;71.61;100385.87;;;;-60
2021/08/30 07:21:58;;;;;;;2.68;2.48;;;;;;;20.21;71.60;100387.41;;;;-60
2021/08/30 07:24:58;;;;;;;2.71;2.51;;;;;;;20.20;71.60;100382.70;;;;-60
2021/08/30 07:27:58;;;;;;;2.73;2.50;;;;;;;20.21;71.55;100385.47;;;;-60
2021/08/30 07:30:58;;;;;;;2.63;2.40;;;;;;;20.21;71.59;100389.77;;;;-60
2021/08/30 07:33:59;;;;;;;2.67;2.47;;;;;;;20.20;71.60;100391.08;;;;-60
2021/08/30 07:36:58;;;;;;;2.80;2.60;;;;;;;20.20;71.58;100390.59;;;;-59
2021/08/30 07:39:58;;;;;;;2.73;2.51;;;;;;;20.20;71.54;100394.17;;;;-59
2021/08/30 07:42:58;;;;;;;2.60;2.40;;;;;;;20.21;71.55;100391.65;;;;-60
2021/08/30 07:45:59;;;;;;;2.71;2.51;;;;;;;20.22;71.54;100391.90;;;;-60
2021/08/30 07:48:58;;;;;;;3.09;2.50;;;;;;;20.24;71.54;100397.77;;;;-58
2021/08/30 07:51:58;;;;;;;2.57;2.37;;;;;;;20.24;71.71;100407.13;;;;-56
2021/08/30 07:54:58;;;;;;;2.70;2.50;;;;;;;20.26;71.90;100411.28;;;;-57
2021/08/30 07:57:58;;;;;;;2.61;2.41;;;;;;;20.27;71.91;100413.47;;;;-58
2021/08/30 08:00:58;;;;;;;2.69;2.49;;;;;;;20.28;71.93;100415.34;;;;-57
2021/08/30 08:03:58;;;;;;;2.60;2.40;;;;;;;20.29;71.96;100416.56;;;;-60
2021/08/30 08:06:58;;;;;;;3.45;2.53;;;;;;;20.34;72.05;100422.05;;;;-51
2021/08/30 08:09:58;;;;;;;3.17;2.45;;;;;;;20.36;72.03;100424.00;;;;-51
2021/08/30 08:12:58;;;;;;;4.33;2.74;;;;;;;20.37;71.89;100427.89;;;;-51
2021/08/30 08:15:58;;;;;;;5.08;2.63;;;;;;;20.38;71.87;100426.36;;;;-57
2021/08/30 08:18:58;;;;;;;6.01;2.62;;;;;;;20.39;71.84;100426.52;;;;-58
2021/08/30 08:22:01;;;;;;;3.37;2.48;;;;;;;20.38;71.78;100425.61;;;;-50
2021/08/30 08:24:59;;;;;;;4.97;2.83;;;;;;;20.39;71.84;100429.45;;;;-50
2021/08/30 08:28:03;;;;;;;4.85;2.53;;;;;;;20.38;71.76;100432.06;;;;-50
2021/08/30 08:30:58;;;;;;;5.30;2.95;;;;;;;20.36;71.82;100426.53;;;;-50
2021/08/30 08:33:58;;;;;;;3.03;2.65;;;;;;;20.36;71.79;100426.20;;;;-50
2021/08/30 08:36:58;;;;;;;3.74;2.70;;;;;;;20.35;71.75;100429.92;;;;-50
2021/08/30 08:39:58;;;;;;;4.63;2.87;;;;;;;20.35;71.75;100431.55;;;;-50
2021/08/30 08:42:58;;;;;;;3.93;2.85;;;;;;;20.36;71.69;100428.53;;;;-50
2021/08/30 08:45:58;;;;;;;3.48;2.59;;;;;;;20.36;71.65;100435.80;;;;-55
2021/08/30 08:48:58;;;;;;;2.89;2.54;;;;;;;20.36;71.72;100435.48;;;;-55
2021/08/30 08:52:00;;;;;;;3.15;2.52;;;;;;;20.36;71.63;100435.00;;;;-54
2021/08/30 08:54:58;;;;;;;2.73;2.45;;;;;;;20.39;71.66;100435.63;;;;-51
2021/08/30 08:57:58;;;;;;;4.56;2.73;;;;;;;20.43;71.75;100437.36;;;;-50
2021/08/30 09:00:58;;;;;;;3.37;2.92;;;;;;;20.45;71.83;100433.63;;;;-53
2021/08/30 09:03:58;;;;;;;3.55;2.75;;;;;;;20.46;72.00;100438.76;;;;-52
2021/08/30 09:06:58;;;;;;;4.43;2.87;;;;;;;20.47;71.91;100433.70;;;;-51
2021/08/30 09:09:59;;;;;;;3.98;3.11;;;;;;;20.48;71.95;100437.11;;;;-49
2021/08/30 09:12:58;;;;;;;3.63;3.33;;;;;;;20.49;72.05;100437.62;;;;-49
2021/08/30 09:15:58;;;;;;;4.28;3.14;;;;;;;20.50;72.11;100438.50;;;;-56
2021/08/30 09:18:58;;;;;;;4.90;3.13;;;;;;;20.50;71.92;100443.00;;;;-61
2021/08/30 09:21:58;;;;;;;4.93;3.34;;;;;;;20.51;72.06;100443.40;;;;-57
2021/08/30 09:24:58;;;;;;;3.62;3.11;;;;;;;20.52;71.95;100443.06;;;;-49
2021/08/30 09:27:58;;;;;;;7.62;3.61;;;;;;;20.54;71.99;100447.89;;;;-48
2021/08/30 09:30:58;;;;;;;5.30;3.49;;;;;;;20.54;71.98;100445.10;;;;-49
2021/08/30 09:33:58;;;;;;;5.05;3.53;;;;;;;20.56;72.09;100446.41;;;;-53
2021/08/30 09:36:58;;;;;;;5.63;3.34;;;;;;;20.57;71.92;100444.88;;;;-51
2021/08/30 09:39:58;;;;;;;6.71;3.50;;;;;;;20.58;71.94;100446.52;;;;-58
2021/08/30 09:42:58;;;;;;;4.93;3.59;;;;;;;20.57;72.00;100447.16;;;;-55
2021/08/30 09:45:58;;;;;;;5.21;3.45;;;;;;;20.56;71.97;100447.14;;;;-56
2021/08/30 09:48:58;;;;;;;6.63;3.73;;;;;;;20.57;72.05;100446.52;;;;-59
2021/08/30 09:51:58;;;;;;;8.92;3.78;;;;;;;20.57;71.94;100446.91;;;;-60
2021/08/30 09:54:58;;;;;;;6.70;3.55;;;;;;;20.57;71.90;100446.27;;;;-60
2021/08/30 09:57:58;;;;;;;17.21;3.67;;;;;;;20.58;71.83;100445.55;;;;-50
2021/08/30 10:00:58;;;;;;;4.63;3.35;;;;;;;20.58;71.83;100442.94;;;;-57
2021/08/30 10:03:58;;;;;;;6.20;3.57;;;;;;;20.58;71.91;100447.75;;;;-57
2021/08/30 10:06:58;;;;;;;5.81;3.51;;;;;;;20.58;71.94;100441.72;;;;-63
2021/08/30 10:09:58;;;;;;;4.75;3.37;;;;;;;20.59;71.81;100438.47;;;;-63
2021/08/30 10:12:58;;;;;;;4.26;3.38;;;;;;;20.60;71.85;100439.52;;;;-63
2021/08/30 10:15:58;;;;;;;6.95;3.51;;;;;;;20.60;71.88;100441.23;;;;-57
2021/08/30 10:18:58;;;;;;;4.79;3.32;;;;;;;20.61;71.79;100437.99;;;;-50
2021/08/30 10:21:58;;;;;;;4.88;3.41;;;;;;;20.63;71.82;100439.77;;;;-52
2021/08/30 10:24:58;;;;;;;5.01;3.18;;;;;;;20.64;71.84;100436.60;;;;-48
2021/08/30 10:27:58;;;;;;;5.91;3.15;;;;;;;20.65;71.90;100433.25;;;;-57
2021/08/30 10:30:58;;;;;;;4.41;3.35;;;;;;;20.65;71.84;100437.59;;;;-60
2021/08/30 10:33:58;;;;;;;6.55;3.53;;;;;;;20.65;71.75;100431.98;;;;-61
2021/08/30 10:36:58;;;;;;;4.00;3.18;;;;;;;20.66;71.69;100431.23;;;;-60
2021/08/30 10:39:58;;;;;;;5.03;3.43;;;;;;;20.67;71.71;100437.16;;;;-66
2021/08/30 10:42:58;;;;;;;4.42;3.37;;;;;;;20.67;71.70;100440.42;;;;-59
2021/08/30 10:45:58;;;;;;;5.87;3.64;;;;;;;20.65;71.69;100442.32;;;;-59
2021/08/30 10:48:58;;;;;;;3.71;3.31;;;;;;;20.65;71.65;100448.75;;;;-61
2021/08/30 10:51:58;;;;;;;5.75;3.36;;;;;;;20.64;71.60;100447.27;;;;-60
2021/08/30 10:54:58;;;;;;;5.34;3.35;;;;;;;20.63;71.56;100451.49;;;;-61
2021/08/30 10:57:58;;;;;;;8.35;3.55;;;;;;;20.63;71.61;100448.83;;;;-61
2021/08/30 11:00:58;;;;;;;3.51;3.21;;;;;;;20.63;71.53;100455.02;;;;-60
2021/08/30 11:03:58;;;;;;;4.85;3.39;;;;;;;20.62;71.57;100455.65;;;;-60
2021/08/30 11:06:58;;;;;;;4.45;3.47;;;;;;;20.61;71.46;100452.58;;;;-58
2021/08/30 11:09:58;;;;;;;4.89;3.46;;;;;;;20.61;71.50;100459.73;;;;-59
2021/08/30 11:12:58;;;;;;;4.43;3.44;;;;;;;20.60;71.44;100448.97;;;;-59
2021/08/30 11:15:58;;;;;;;4.63;3.39;;;;;;;20.61;71.39;100456.48;;;;-59
2021/08/30 11:18:58;;;;;;;4.50;3.41;;;;;;;20.61;71.42;100453.39;;;;-59
2021/08/30 11:21:58;;;;;;;4.03;3.53;;;;;;;20.60;71.40;100449.87;;;;-50
2021/08/30 11:24:58;;;;;;;5.57;3.42;;;;;;;20.60;71.31;100447.66;;;;-51
2021/08/30 11:27:58;;;;;;;6.38;3.45;;;;;;;20.62;71.44;100446.04;;;;-58
2021/08/30 11:30:58;;;;;;;4.21;3.39;;;;;;;20.64;71.29;100441.64;;;;-61
2021/08/30 11:33:58;;;;;;;4.64;3.46;;;;;;;20.64;71.39;100442.95;;;;-60
2021/08/30 11:36:58;;;;;;;5.47;3.85;;;;;;;20.65;71.41;100447.69;;;;-61
2021/08/30 11:39:58;;;;;;;5.35;3.63;;;;;;;20.68;71.39;100454.13;;;;-59
2021/08/30 11:42:58;;;;;;;4.99;3.51;;;;;;;20.66;71.35;100457.53;;;;-59
2021/08/30 11:45:58;;;;;;;4.00;3.47;;;;;;;20.66;71.48;100455.50;;;;-60
2021/08/30 11:48:58;;;;;;;4.79;3.57;;;;;;;20.66;71.52;100455.83;;;;-58
2021/08/30 11:51:58;;;;;;;6.02;4.06;;;;;;;20.67;71.43;100456.73;;;;-53
2021/08/30 11:54:58;;;;;;;4.99;3.59;;;;;;;20.69;71.43;100452.97;;;;-54
2021/08/30 11:57:58;;;;;;;5.23;3.74;;;;;;;20.69;71.48;100452.64;;;;-52
2021/08/30 12:00:58;;;;;;;4.34;3.90;;;;;;;20.69;71.57;100456.17;;;;-60
2021/08/30 12:03:58;;;;;;;4.11;3.70;;;;;;;20.70;71.61;100462.10;;;;-50
2021/08/30 12:06:58;;;;;;;4.61;4.04;;;;;;;20.71;71.51;100467.09;;;;-62
2021/08/30 12:09:58;;;;;;;4.46;3.81;;;;;;;20.71;71.50;100466.33;;;;-60
2021/08/30 12:13:18;;;;;;;4.39;3.69;;;;;;;20.72;71.60;100472.78;;;;-50
2021/08/30 12:15:58;;;;;;;5.53;3.89;;;;;;;20.72;71.51;100472.84;;;;-61
2021/08/30 12:18:58;;;;;;;5.50;4.16;;;;;;;20.73;71.50;100482.78;;;;-51
2021/08/30 12:21:58;;;;;;;4.13;3.70;;;;;;;20.73;71.49;100487.20;;;;-52
2021/08/30 12:24:58;;;;;;;4.64;4.01;;;;;;;20.74;71.52;100492.97;;;;-55
2021/08/30 12:27:58;;;;;;;5.50;4.25;;;;;;;20.74;71.54;100491.26;;;;-55
2021/08/30 12:30:58;;;;;;;5.79;4.16;;;;;;;20.74;71.62;100488.91;;;;-54
2021/08/30 12:33:58;;;;;;;5.89;4.21;;;;;;;20.74;71.55;100487.52;;;;-48
2021/08/30 12:36:58;;;;;;;4.98;4.19;;;;;;;20.76;71.57;100483.05;;;;-52
2021/08/30 12:39:58;;;;;;;5.21;4.11;;;;;;;20.77;71.61;100484.66;;;;-54
2021/08/30 12:42:58;;;;;;;5.17;4.33;;;;;;;20.77;71.62;100487.69;;;;-52
2021/08/30 12:45:58;;;;;;;5.76;4.59;;;;;;;20.75;71.61;100488.10;;;;-47
2021/08/30 12:48:59;;;;;;;5.57;4.45;;;;;;;20.75;71.58;100485.22;;;;-47
2021/08/30 12:51:58;;;;;;;8.59;4.41;;;;;;;20.73;71.57;100502.59;;;;-47
2021/08/30 12:54:58;;;;;;;4.79;4.25;;;;;;;20.75;71.54;100480.01;;;;-52
2021/08/30 12:57:58;;;;;;;4.83;4.35;;;;;;;20.77;71.62;100485.31;;;;-51
2021/08/30 13:00:58;;;;;;;5.01;4.19;;;;;;;20.75;71.50;100483.70;;;;-51
2021/08/30 13:03:58;;;;;;;4.59;4.15;;;;;;;20.74;71.63;100483.69;;;;-52
2021/08/30 13:06:58;;;;;;;6.12;4.41;;;;;;;20.74;71.57;100486.54;;;;-52
2021/08/30 13:09:58;;;;;;;6.13;4.27;;;;;;;20.73;71.49;100486.03;;;;-52
2021/08/30 13:12:58;;;;;;;4.92;4.23;;;;;;;20.72;71.51;100485.80;;;;-51
2021/08/30 13:15:58;;;;;;;6.14;4.43;;;;;;;20.73;71.65;100484.84;;;;-50
2021/08/30 13:18:58;;;;;;;6.99;4.06;;;;;;;20.73;71.56;100483.29;;;;-51
2021/08/30 13:22:00;;;;;;;5.77;4.05;;;;;;;20.73;71.62;100485.49;;;;-51
2021/08/30 13:24:58;;;;;;;5.65;4.25;;;;;;;20.76;71.67;100489.31;;;;-52
2021/08/30 13:27:58;;;;;;;6.16;4.44;;;;;;;20.75;71.77;100492.47;;;;-52
2021/08/30 13:30:58;;;;;;;6.96;4.43;;;;;;;20.73;71.66;100491.92;;;;-52
2021/08/30 13:33:58;;;;;;;6.72;4.47;;;;;;;20.73;71.73;100489.62;;;;-52
2021/08/30 13:36:58;;;;;;;5.31;4.49;;;;;;;20.73;71.67;100496.24;;;;-52
2021/08/30 13:39:58;;;;;;;5.25;4.57;;;;;;;20.71;71.69;100499.73;;;;-52
2021/08/30 13:42:58;;;;;;;5.83;4.73;;;;;;;20.71;71.73;100505.36;;;;-52
2021/08/30 13:45:58;;;;;;;5.22;4.52;;;;;;;20.71;71.68;100500.96;;;;-59
2021/08/30 13:48:58;;;;;;;5.59;4.59;;;;;;;20.70;71.69;100503.79;;;;-59
2021/08/30 13:51:58;;;;;;;5.31;4.61;;;;;;;20.69;71.65;100500.95;;;;-60
2021/08/30 13:54:58;;;;;;;5.79;4.29;;;;;;;20.68;71.63;100502.81;;;;-58
2021/08/30 13:57:58;;;;;;;4.80;4.36;;;;;;;20.68;71.69;100507.05;;;;-59
2021/08/30 14:00:58;;;;;;;5.03;4.53;;;;;;;20.67;71.58;100508.77;;;;-59
2021/08/30 14:03:58;;;;;;;6.15;4.50;;;;;;;20.67;71.58;100507.80;;;;-59
2021/08/30 14:06:58;;;;;;;6.02;4.43;;;;;;;20.66;71.59;100510.38;;;;-52
2021/08/30 14:09:58;;;;;;;5.09;4.17;;;;;;;20.65;71.66;100514.84;;;;-51
2021/08/30 14:12:58;;;;;;;4.83;4.28;;;;;;;20.65;71.54;100515.44;;;;-59
2021/08/30 14:15:58;;;;;;;5.72;4.23;;;;;;;20.65;71.57;100515.28;;;;-60
2021/08/30 14:18:58;;;;;;;4.71;4.31;;;;;;;20.64;71.59;100519.58;;;;-52
2021/08/30 14:21:58;;;;;;;10.71;4.51;;;;;;;20.67;71.51;100513.16;;;;-50
2021/08/30 14:24:58;;;;;;;5.65;4.34;;;;;;;20.70;71.56;100510.48;;;;-53
2021/08/30 14:27:58;;;;;;;4.81;4.19;;;;;;;20.68;71.55;100512.34;;;;-59
2021/08/30 14:30:58;;;;;;;5.89;4.26;;;;;;;20.67;71.59;100513.57;;;;-53
2021/08/30 14:33:59;;;;;;;4.62;4.16;;;;;;;20.66;71.60;100518.77;;;;-52
2021/08/30 14:36:58;;;;;;;4.77;4.27;;;;;;;20.65;71.62;100522.83;;;;-52
2021/08/30 14:39:58;;;;;;;4.91;4.41;;;;;;;20.64;71.57;100518.60;;;;-59
2021/08/30 14:42:58;;;;;;;4.89;4.42;;;;;;;20.64;71.62;100517.78;;;;-59
2021/08/30 14:45:58;;;;;;;4.75;4.17;;;;;;;20.66;71.53;100523.73;;;;-59
2021/08/30 14:48:58;;;;;;;6.95;4.15;;;;;;;20.67;71.55;100526.11;;;;-58
2021/08/30 14:51:58;;;;;;;7.66;4.27;;;;;;;20.68;71.62;100526.02;;;;-56
2021/08/30 14:54:58;;;;;;;5.52;4.33;;;;;;;20.69;71.57;100530.27;;;;-51
2021/08/30 14:57:58;;;;;;;6.81;4.29;;;;;;;20.69;71.61;100530.03;;;;-54
2021/08/30 15:00:59;;;;;;;5.05;4.30;;;;;;;20.70;71.60;100530.02;;;;-58
2021/08/30 15:03:58;;;;;;;5.61;4.17;;;;;;;20.69;71.60;100528.15;;;;-59
2021/08/30 15:06:58;;;;;;;6.25;4.13;;;;;;;20.68;71.58;100529.69;;;;-56
2021/08/30 15:09:58;;;;;;;6.43;4.27;;;;;;;20.68;71.54;100529.52;;;;-56
2021/08/30 15:12:58;;;;;;;7.13;4.63;;;;;;;20.67;71.59;100530.65;;;;-57
2021/08/30 15:15:58;;;;;;;5.08;4.25;;;;;;;20.66;71.57;100528.45;;;;-59
2021/08/30 15:18:58;;;;;;;5.71;4.08;;;;;;;20.66;71.60;100526.67;;;;-59
2021/08/30 15:21:58;;;;;;;5.49;4.34;;;;;;;20.64;71.62;100524.46;;;;-56
2021/08/30 15:24:58;;;;;;;4.89;4.28;;;;;;;20.64;71.57;100524.30;;;;-58
2021/08/30 15:27:58;;;;;;;10.66;4.39;;;;;;;20.63;71.62;100520.33;;;;-58
2021/08/30 15:30:58;;;;;;;5.92;4.02;;;;;;;20.63;71.61;100520.70;;;;-59
2021/08/30 15:33:58;;;;;;;6.40;3.99;;;;;;;20.63;71.55;100520.48;;;;-63
2021/08/30 15:36:58;;;;;;;6.38;4.17;;;;;;;20.65;71.53;100526.11;;;;-61
2021/08/30 15:39:58;;;;;;;4.89;3.89;;;;;;;20.67;71.56;100528.20;;;;-53
2021/08/30 15:42:58;;;;;;;5.40;3.92;;;;;;;20.68;71.62;100534.66;;;;-55
2021/08/30 15:45:58;;;;;;;6.88;4.25;;;;;;;20.68;71.69;100538.06;;;;-61
2021/08/30 15:48:58;;;;;;;5.81;4.35;;;;;;;20.70;71.74;100539.80;;;;-55
2021/08/30 15:51:58;;;;;;;5.22;4.18;;;;;;;20.69;71.78;100541.02;;;;-58
2021/08/30 15:54:58;;;;;;;6.85;4.04;;;;;;;20.70;71.68;100542.06;;;;-58
2021/08/30 15:57:58;;;;;;;5.63;4.31;;;;;;;20.70;71.76;100541.58;;;;-57
2021/08/30 16:00:58;;;;;;;5.18;4.06;;;;;;;20.70;71.71;100546.30;;;;-58
2021/08/30 16:03:58;;;;;;;5.43;3.99;;;;;;;20.71;71.74;100549.09;;;;-54
2021/08/30 16:06:58;;;;;;;4.83;4.17;;;;;;;20.72;71.69;100551.19;;;;-48
2021/08/30 16:09:58;;;;;;;4.37;3.97;;;;;;;20.72;71.76;100551.77;;;;-49
2021/08/30 16:12:58;;;;;;;4.83;3.93;;;;;;;20.74;71.71;100551.28;;;;-49
2021/08/30 16:15:58;;;;;;;5.38;4.03;;;;;;;20.75;71.86;100552.60;;;;-54
2021/08/30 16:18:58;;;;;;;6.49;4.07;;;;;;;20.76;71.80;100547.88;;;;-53
2021/08/30 16:21:58;;;;;;;4.25;3.83;;;;;;;20.75;71.89;100546.88;;;;-64
2021/08/30 16:24:58;;;;;;;4.60;3.81;;;;;;;20.75;71.84;100552.28;;;;-60
2021/08/30 16:27:58;;;;;;;4.93;3.99;;;;;;;20.76;71.76;100560.65;;;;-61
2021/08/30 16:30:58;;;;;;;4.18;3.71;;;;;;;20.77;71.67;100556.03;;;;-63
2021/08/30 16:33:58;;;;;;;4.53;4.04;;;;;;;20.78;71.80;100553.66;;;;-59
2021/08/30 16:36:58;;;;;;;5.04;3.88;;;;;;;20.77;71.63;100555.62;;;;-54
2021/08/30 16:39:58;;;;;;;5.02;4.23;;;;;;;20.78;71.66;100555.53;;;;-51
2021/08/30 16:42:58;;;;;;;4.70;4.20;;;;;;;20.77;71.72;100556.49;;;;-51
2021/08/30 16:45:58;;;;;;;6.23;4.05;;;;;;;20.77;71.75;100560.41;;;;-52